Time;durP1;ratioP1;P1;durP2;ratioP2;P2;SDS_P1;SDS_P2;PMS_P1;PMS_P2;Temp;Humidity;BMP_temperature;BMP_pressure;BME280_temperature;BME280_humidity;BME280_pressure;Samples;Min_cycle;Max_cycle;Signal;HPM_P1;HPM_P2
2023/04/25 00:00:41;;;;;;;39.97;4.95;;;;;;;;;;6258913;22;20356;-92
2023/04/25 00:03:14;;;;;;;18.83;4.22;;;;;;;;;;6261024;22;20095;-90
2023/04/25 00:05:53;;;;;;;27.73;4.15;;;;;;;;;;6257012;22;20014;-90
2023/04/25 00:08:20;;;;;;;31.05;4.20;;;;;;;;;;6281118;22;20008;-90
2023/04/25 00:10:49;;;;;;;32.28;5.68;;;;;;;;;;6252000;22;20008;-88
2023/04/25 00:13:19;;;;;;;31.20;5.30;;;;;;;;;;6276116;22;20015;-89
2023/04/25 00:15:47;;;;;;;27.08;5.03;;;;;;;;;;6279196;22;20016;-89
2023/04/25 00:18:15;;;;;;;27.95;3.67;;;;;;;;;;6254348;22;20027;-89
2023/04/25 00:20:46;;;;;;;17.55;4.13;;;;;;;;;;6254001;22;20012;-90
2023/04/25 00:23:12;;;;;;;22.33;4.03;;;;;;;;;;6253614;22;20008;-90
2023/04/25 00:25:42;;;;;;;25.55;4.35;;;;;;;;;;6258031;22;20004;-89
2023/04/25 00:30:56;;;;;;;26.15;3.67;;;;;;;;;;6275073;22;20172;-89
2023/04/25 00:33:23;;;;;;;20.90;3.53;;;;;;;;;;6258584;22;20008;-89
2023/04/25 00:36:01;;;;;;;22.20;3.20;;;;;;;;;;6295661;22;20014;-92
2023/04/25 00:38:27;;;;;;;21.17;3.70;;;;;;;;;;6262959;22;20606;-90
2023/04/25 00:40:57;;;;;;;23.13;3.38;;;;;;;;;;6256214;22;20054;-90
2023/04/25 00:43:37;;;;;;;25.90;3.75;;;;;;;;;;6254956;22;20008;-90
2023/04/25 00:48:54;;;;;;;19.40;2.85;;;;;;;;;;6276459;22;20030;-90
2023/04/25 00:51:35;;;;;;;20.13;2.97;;;;;;;;;;6281167;22;20007;-93
2023/04/25 00:54:04;;;;;;;18.17;3.22;;;;;;;;;;6278995;22;20012;-91
2023/04/25 00:56:30;;;;;;;20.63;3.65;;;;;;;;;;6279803;22;20014;-92
2023/04/25 00:59:18;;;;;;;18.27;4.15;;;;;;;;;;6281892;22;20104;-92
2023/04/25 01:01:54;;;;;;;22.02;3.17;;;;;;;;;;6309335;22;20003;-91
2023/04/25 01:04:22;;;;;;;12.43;3.00;;;;;;;;;;6282116;22;20004;-92
2023/04/25 01:06:48;;;;;;;15.68;2.80;;;;;;;;;;6280308;22;20007;-90
2023/04/25 01:09:15;;;;;;;23.90;3.45;;;;;;;;;;6254836;22;20361;-91
2023/04/25 01:12:00;;;;;;;29.73;2.30;;;;;;;;;;6281511;22;20007;-87
2023/04/25 01:14:27;;;;;;;10.80;1.75;;;;;;;;;;6281350;22;20027;-89
2023/04/25 01:16:54;;;;;;;19.88;2.78;;;;;;;;;;6256501;22;20150;-89
2023/04/25 01:19:33;;;;;;;17.20;2.70;;;;;;;;;;6254712;22;20041;-93
2023/04/25 01:22:00;;;;;;;15.18;2.60;;;;;;;;;;6255394;22;20021;-92
2023/04/25 01:24:26;;;;;;;10.35;2.40;;;;;;;;;;6253542;22;20008;-91
2023/04/25 01:26:56;;;;;;;11.85;2.80;;;;;;;;;;6279366;22;20007;-92
2023/04/25 01:29:24;;;;;;;13.70;3.60;;;;;;;;;;6255565;22;20011;-92
2023/04/25 01:31:58;;;;;;;10.18;2.45;;;;;;;;;;6278844;22;20007;-92
2023/04/25 01:34:33;;;;;;;13.90;2.38;;;;;;;;;;6281468;22;20066;-92
2023/04/25 01:37:02;;;;;;;12.05;2.38;;;;;;;;;;6279056;22;20514;-91
2023/04/25 01:42:18;;;;;;;19.08;2.88;;;;;;;;;;6237363;22;20019;-92
2023/04/25 01:44:48;;;;;;;16.13;3.28;;;;;;;;;;6279691;22;20029;-93
2023/04/25 01:47:14;;;;;;;18.25;3.15;;;;;;;;;;6278988;22;20010;-91
2023/04/25 01:49:40;;;;;;;21.98;2.38;;;;;;;;;;6255374;22;20019;-93
2023/04/25 01:52:06;;;;;;;13.30;2.47;;;;;;;;;;6254077;22;20015;-92
2023/04/25 01:54:44;;;;;;;15.32;3.05;;;;;;;;;;6256333;22;20010;-93
2023/04/25 01:57:15;;;;;;;18.83;2.40;;;;;;;;;;6281267;22;20018;-92
2023/04/25 01:59:41;;;;;;;27.67;3.88;;;;;;;;;;6280114;22;20162;-91
2023/04/25 02:02:29;;;;;;;15.63;3.05;;;;;;;;;;6281475;22;19999;-91
2023/04/25 02:04:54;;;;;;;;;;;;;;;;;;6281876;22;20008;-91
2023/04/25 02:07:21;;;;;;;17.67;2.78;;;;;;;;;;6293580;22;19963;-90
2023/04/25 02:10:01;;;;;;;10.40;2.22;;;;;;;;;;6269412;22;20012;-91
2023/04/25 02:12:28;;;;;;;25.20;3.78;;;;;;;;;;6267277;22;20011;-92
2023/04/25 02:14:54;;;;;;;18.98;3.65;;;;;;;;;;6269291;22;20011;-92
2023/04/25 02:17:21;;;;;;;31.27;4.18;;;;;;;;;;6290917;22;20026;-90
2023/04/25 02:19:50;;;;;;;18.17;2.97;;;;;;;;;;6261850;22;20014;-91
2023/04/25 02:22:16;;;;;;;24.63;3.25;;;;;;;;;;6282041;22;20015;-90
2023/04/25 02:24:42;;;;;;;22.83;2.92;;;;;;;;;;6280122;22;20377;-91
2023/04/25 02:27:09;;;;;;;17.48;3.05;;;;;;;;;;6279250;22;20003;-92
2023/04/25 02:29:36;;;;;;;14.32;2.80;;;;;;;;;;6280290;22;20012;-92
2023/04/25 02:32:03;;;;;;;14.15;3.33;;;;;;;;;;6282124;22;20495;-90
2023/04/25 02:34:29;;;;;;;23.65;3.00;;;;;;;;;;6254035;22;20011;-90
2023/04/25 02:36:56;;;;;;;27.65;3.58;;;;;;;;;;6279025;22;20019;-91
2023/04/25 02:39:24;;;;;;;18.15;2.97;;;;;;;;;;6254222;22;20050;-90
2023/04/25 02:42:04;;;;;;;19.27;3.30;;;;;;;;;;6251034;22;20034;-91
2023/04/25 02:44:32;;;;;;;12.68;2.65;;;;;;;;;;6254983;22;20011;-91
2023/04/25 02:46:58;;;;;;;18.65;3.00;;;;;;;;;;6276671;22;20376;-92
2023/04/25 02:49:51;;;;;;;15.60;3.08;;;;;;;;;;6277563;22;20011;-89
2023/04/25 02:52:17;;;;;;;13.38;1.85;;;;;;;;;;6278789;22;20008;-90
2023/04/25 02:54:44;;;;;;;8.40;2.00;;;;;;;;;;6280942;22;20007;-90
2023/04/25 02:57:11;;;;;;;26.60;2.72;;;;;;;;;;6278187;22;20217;-90
2023/04/25 02:59:37;;;;;;;13.90;2.78;;;;;;;;;;6253436;22;20449;-89
2023/04/25 03:02:13;;;;;;;11.52;2.75;;;;;;;;;;6277453;22;20003;-91
2023/04/25 03:04:40;;;;;;;;;;;;;;;;;;6280173;22;20004;-91
2023/04/25 03:07:12;;;;;;;13.45;3.20;;;;;;;;;;6279962;22;19899;-91
2023/04/25 03:09:39;;;;;;;22.35;2.58;;;;;;;;;;6253132;22;20029;-90
2023/04/25 03:12:22;;;;;;;19.73;3.10;;;;;;;;;;6280044;22;20042;-91
2023/04/25 03:15:11;;;;;;;15.93;2.10;;;;;;;;;;6280994;22;20059;-91
2023/04/25 03:17:37;;;;;;;11.80;1.70;;;;;;;;;;6245767;22;20346;-91
2023/04/25 03:20:14;;;;;;;9.18;2.58;;;;;;;;;;6278105;22;20079;-91
2023/04/25 03:22:44;;;;;;;11.60;2.65;;;;;;;;;;6277893;22;20015;-91
2023/04/25 03:25:11;;;;;;;15.63;2.33;;;;;;;;;;6253762;22;20011;-91
2023/04/25 03:27:37;;;;;;;20.17;3.10;;;;;;;;;;6276927;22;20099;-91
2023/04/25 03:30:03;;;;;;;12.82;2.22;;;;;;;;;;6252151;22;20008;-91
2023/04/25 03:32:30;;;;;;;11.00;3.17;;;;;;;;;;6276971;22;20019;-91
2023/04/25 03:34:58;;;;;;;15.77;2.65;;;;;;;;;;6279105;22;20448;-91
2023/04/25 03:37:24;;;;;;;8.82;1.95;;;;;;;;;;6250359;22;20008;-92
2023/04/25 03:39:50;;;;;;;28.02;3.17;;;;;;;;;;6278049;22;20503;-93
2023/04/25 03:42:17;;;;;;;16.92;2.30;;;;;;;;;;6253597;22;20481;-91
2023/04/25 03:44:43;;;;;;;15.57;2.45;;;;;;;;;;6276863;22;20570;-92
2023/04/25 03:47:15;;;;;;;15.05;2.13;;;;;;;;;;6252025;22;20399;-92
2023/04/25 03:49:42;;;;;;;9.65;1.83;;;;;;;;;;6253281;22;20035;-92
2023/04/25 03:52:08;;;;;;;14.85;2.20;;;;;;;;;;6252986;22;20012;-92
2023/04/25 03:54:37;;;;;;;8.00;1.85;;;;;;;;;;6254258;22;20430;-93
2023/04/25 03:57:04;;;;;;;9.55;1.92;;;;;;;;;;6253561;22;20008;-92
2023/04/25 03:59:32;;;;;;;12.48;2.05;;;;;;;;;;6275639;22;20020;-92
2023/04/25 04:01:59;;;;;;;13.55;2.42;;;;;;;;;;6278009;22;20335;-93
2023/04/25 04:04:26;;;;;;;20.88;2.15;;;;;;;;;;6251275;22;20031;-92
2023/04/25 04:07:17;;;;;;;14.32;3.00;;;;;;;;;;6251909;22;20012;-91
2023/04/25 04:09:51;;;;;;;15.55;2.40;;;;;;;;;;6274982;22;20010;-92
2023/04/25 04:12:17;;;;;;;13.20;2.60;;;;;;;;;;6257466;22;20067;-93
2023/04/25 04:14:43;;;;;;;18.00;2.65;;;;;;;;;;6255939;22;20627;-92
2023/04/25 04:17:10;;;;;;;9.88;2.15;;;;;;;;;;6278367;22;20067;-91
2023/04/25 04:19:36;;;;;;;18.25;3.40;;;;;;;;;;6255175;22;20008;-92
2023/04/25 04:22:02;;;;;;;13.07;2.28;;;;;;;;;;6251824;22;20019;-92
2023/04/25 04:24:28;;;;;;;13.27;2.70;;;;;;;;;;6251081;22;20008;-92
2023/04/25 04:26:54;;;;;;;10.93;2.30;;;;;;;;;;6277370;22;20088;-92
2023/04/25 04:29:21;;;;;;;9.40;2.55;;;;;;;;;;6254267;22;20016;-92
2023/04/25 04:31:50;;;;;;;14.63;2.55;;;;;;;;;;6251959;22;20026;-92
2023/04/25 04:34:18;;;;;;;16.98;2.92;;;;;;;;;;6278379;22;20050;-93
2023/04/25 04:36:54;;;;;;;10.52;2.50;;;;;;;;;;6277335;22;20004;-92
2023/04/25 04:39:21;;;;;;;26.13;3.53;;;;;;;;;;6277362;22;20338;-92
2023/04/25 04:41:47;;;;;;;17.08;3.45;;;;;;;;;;6251930;22;20012;-91
2023/04/25 04:44:14;;;;;;;40.53;9.50;;;;;;;;;;6275738;22;20004;-93
2023/04/25 04:46:42;;;;;;;16.30;3.10;;;;;;;;;;6252692;22;20015;-92
2023/04/25 04:49:12;;;;;;;10.85;2.50;;;;;;;;;;6252140;22;20008;-92
2023/04/25 04:51:38;;;;;;;5.72;1.63;;;;;;;;;;6250733;22;20410;-93
2023/04/25 04:54:05;;;;;;;20.50;2.42;;;;;;;;;;6276435;22;20004;-91
2023/04/25 04:56:31;;;;;;;11.38;2.47;;;;;;;;;;6251232;22;20332;-92
2023/04/25 04:58:58;;;;;;;8.80;2.47;;;;;;;;;;6276682;22;20007;-92
2023/04/25 05:01:25;;;;;;;16.58;2.65;;;;;;;;;;6250807;22;20028;-92
2023/04/25 05:03:53;;;;;;;20.45;2.60;;;;;;;;;;6276949;22;20012;-92
2023/04/25 05:06:19;;;;;;;6.57;1.55;;;;;;;;;;6251432;22;20023;-92
2023/04/25 05:08:46;;;;;;;10.10;1.80;;;;;;;;;;6276506;22;20004;-93
2023/04/25 05:11:12;;;;;;;4.18;1.50;;;;;;;;;;6277543;22;20014;-92
2023/04/25 05:13:38;;;;;;;13.88;2.17;;;;;;;;;;6276326;22;20124;-92
2023/04/25 05:16:04;;;;;;;4.78;1.60;;;;;;;;;;6277582;22;20022;-92
2023/04/25 05:18:33;;;;;;;4.10;1.50;;;;;;;;;;6277990;22;20022;-92
2023/04/25 05:20:59;;;;;;;5.40;1.23;;;;;;;;;;6253309;22;20012;-93
2023/04/25 05:23:33;;;;;;;8.18;0.85;;;;;;;;;;6251267;22;20011;-92
2023/04/25 05:26:00;;;;;;;5.10;1.50;;;;;;;;;;6277830;22;20011;-90
2023/04/25 05:28:26;;;;;;;2.03;0.82;;;;;;;;;;6252198;22;20024;-91
2023/04/25 05:30:53;;;;;;;8.25;1.65;;;;;;;;;;6277308;22;20011;-91
2023/04/25 05:33:26;;;;;;;6.20;1.30;;;;;;;;;;6277413;22;20004;-91
2023/04/25 05:35:52;;;;;;;3.72;1.65;;;;;;;;;;6252170;22;20124;-91
2023/04/25 05:38:18;;;;;;;2.92;1.35;;;;;;;;;;6277446;22;20012;-92
2023/04/25 05:40:44;;;;;;;10.95;1.40;;;;;;;;;;6262393;22;20011;-92
2023/04/25 05:43:10;;;;;;;4.75;1.55;;;;;;;;;;6297191;22;20020;-91
2023/04/25 05:45:47;;;;;;;4.07;1.30;;;;;;;;;;6269812;22;20019;-92
2023/04/25 05:51:22;;;;;;;9.20;1.83;;;;;;;;;;6247126;22;20028;-93
2023/04/25 05:53:49;;;;;;;5.20;1.67;;;;;;;;;;6269500;22;20004;-92
2023/04/25 05:56:34;;;;;;;10.88;1.88;;;;;;;;;;6291174;22;20078;-91
2023/04/25 05:59:00;;;;;;;8.57;1.48;;;;;;;;;;6282203;22;20007;-92
2023/04/25 06:01:27;;;;;;;8.85;2.25;;;;;;;;;;6277798;22;20083;-93
2023/04/25 06:03:53;;;;;;;4.53;1.80;;;;;;;;;;6279102;22;20004;-93
2023/04/25 06:06:19;;;;;;;10.30;1.90;;;;;;;;;;6254749;22;20007;-94
2023/04/25 06:08:45;;;;;;;9.52;1.90;;;;;;;;;;6252873;22;20065;-93
2023/04/25 06:11:12;;;;;;;15.13;1.80;;;;;;;;;;6253726;22;20429;-93
2023/04/25 06:13:38;;;;;;;9.88;1.88;;;;;;;;;;6278286;22;20035;-93
2023/04/25 06:16:04;;;;;;;10.57;2.03;;;;;;;;;;6252067;22;20068;-93
2023/04/25 06:18:46;;;;;;;11.18;1.58;;;;;;;;;;6277562;22;20050;-93
2023/04/25 06:21:12;;;;;;;4.72;1.40;;;;;;;;;;6252190;22;20016;-94
2023/04/25 06:23:38;;;;;;;10.90;1.38;;;;;;;;;;6276264;22;20003;-92
2023/04/25 06:26:04;;;;;;;8.90;1.10;;;;;;;;;;6277760;22;20030;-94
2023/04/25 06:28:34;;;;;;;5.90;1.20;;;;;;;;;;6252072;22;20008;-93
2023/04/25 06:31:00;;;;;;;5.53;1.55;;;;;;;;;;6251664;22;20098;-93
2023/04/25 06:33:29;;;;;;;11.05;1.30;;;;;;;;;;6251169;22;20008;-94
2023/04/25 06:35:55;;;;;;;5.20;1.25;;;;;;;;;;6251040;22;20012;-94
2023/04/25 06:38:26;;;;;;;6.43;1.50;;;;;;;;;;6278122;22;20023;-94
2023/04/25 06:40:52;;;;;;;9.20;1.83;;;;;;;;;;6279130;22;20019;-94
2023/04/25 06:43:18;;;;;;;6.35;0.95;;;;;;;;;;6253196;22;20004;-95
2023/04/25 06:46:03;;;;;;;11.65;1.85;;;;;;;;;;6251286;22;20060;-94
2023/04/25 06:48:30;;;;;;;9.85;1.70;;;;;;;;;;6281186;22;20129;-94
2023/04/25 06:50:58;;;;;;;11.90;2.45;;;;;;;;;;6278321;22;20015;-94
2023/04/25 06:53:36;;;;;;;12.02;1.40;;;;;;;;;;6253653;22;20454;-93
2023/04/25 06:56:08;;;;;;;14.10;1.77;;;;;;;;;;6275676;22;20074;-92
2023/04/25 06:58:35;;;;;;;9.40;1.50;;;;;;;;;;6254968;22;20076;-93
2023/04/25 07:01:01;;;;;;;16.05;2.25;;;;;;;;;;6272684;22;20779;-92
2023/04/25 07:03:31;;;;;;;12.30;1.80;;;;;;;;;;6279461;22;20380;-93
2023/04/25 07:09:06;;;;;;;10.98;2.05;;;;;;;;;;6291474;22;20038;-93
2023/04/25 07:11:38;;;;;;;9.45;2.55;;;;;;;;;;6279462;22;20017;-94
2023/04/25 07:14:04;;;;;;;11.55;1.58;;;;;;;;;;6276309;22;20031;-92
2023/04/25 07:16:42;;;;;;;9.55;1.77;;;;;;;;;;6280130;22;20008;-93
2023/04/25 07:19:08;;;;;;;3.22;1.35;;;;;;;;;;6253160;22;20012;-92
2023/04/25 07:21:45;;;;;;;8.77;2.40;;;;;;;;;;6255047;22;20063;-92
2023/04/25 07:24:11;;;;;;;11.75;1.35;;;;;;;;;;6251958;22;20040;-91
2023/04/25 07:26:37;;;;;;;6.07;1.52;;;;;;;;;;6257304;22;20039;-89
2023/04/25 07:29:27;;;;;;;4.00;1.33;;;;;;;;;;6251259;22;20040;-90
2023/04/25 07:31:53;;;;;;;4.20;1.15;;;;;;;;;;6275766;22;20035;-89
2023/04/25 07:34:20;;;;;;;8.77;1.33;;;;;;;;;;6276731;22;20018;-88
2023/04/25 07:40:04;;;;;;;9.77;1.52;;;;;;;;;;6199790;23;20012;-89
2023/04/25 07:42:31;;;;;;;9.18;1.30;;;;;;;;;;6186743;23;20044;-94
2023/04/25 07:45:00;;;;;;;4.20;0.82;;;;;;;;;;6246481;22;20004;-92
2023/04/25 07:47:30;;;;;;;8.57;1.50;;;;;;;;;;6276531;22;20026;-92
2023/04/25 07:50:00;;;;;;;19.98;1.58;;;;;;;;;;6279569;22;20421;-92
2023/04/25 07:52:56;;;;;;;10.40;2.28;;;;;;;;;;6273749;22;20019;-93
2023/04/25 07:55:57;;;;;;;;;;;;;;;;;;;;;
2023/04/25 07:58:21;;;;;;;13.23;1.52;;;;;;;;;;6278500;22;20023;-94
2023/04/25 08:16:02;;;;;;;2.70;1.20;;;;;;;;;;6280856;22;20050;-93
2023/04/25 08:18:40;;;;;;;37.03;2.55;;;;;;;;;;6268050;22;20010;-93
2023/04/25 08:21:57;;;;;;;;;;;;;;;;;;;;;
2023/04/25 08:24:34;;;;;;;11.23;2.08;;;;;;;;;;6160088;23;20005;-91
2023/04/25 08:30:11;;;;;;;2.75;0.38;;;;;;;;;;6284512;22;20010;-93
2023/04/25 08:32:40;;;;;;;4.70;0.80;;;;;;;;;;6283239;22;20004;-92
2023/04/25 08:35:07;;;;;;;6.05;1.00;;;;;;;;;;6282667;22;20010;-93
2023/04/25 08:37:33;;;;;;;12.32;1.00;;;;;;;;;;6261797;22;20015;-92
2023/04/25 08:40:10;;;;;;;1.95;1.00;;;;;;;;;;6258089;22;20035;-92
2023/04/25 08:42:37;;;;;;;2.67;0.80;;;;;;;;;;6259178;23;20004;-93
2023/04/25 08:45:04;;;;;;;2.13;0.52;;;;;;;;;;6233567;23;20058;-93
2023/04/25 08:47:35;;;;;;;1.75;1.15;;;;;;;;;;6261682;23;20004;-93
2023/04/25 08:56:39;;;;;;;3.35;1.10;;;;;;;;;;6117204;23;20249;-93
2023/04/25 08:59:33;;;;;;;2.70;1.00;;;;;;;;;;6092366;23;20010;-92
2023/04/25 09:02:00;;;;;;;3.55;1.08;;;;;;;;;;6121291;23;20014;-93
2023/04/25 09:05:01;;;;;;;;;;;;;;;;;;;;;
2023/04/25 09:07:29;;;;;;;2.90;1.10;;;;;;;;;;6065881;23;20033;-93
2023/04/25 09:16:45;;;;;;;;;;;;;;;;;;;;;
2023/04/25 09:19:39;;;;;;;5.03;1.33;;;;;;;;;;6031541;23;20020;-94
2023/04/25 09:23:24;;;;;;;4.15;1.30;;;;;;;;;;6022944;23;20023;-95
2023/04/25 09:26:16;;;;;;;7.63;1.42;;;;;;;;;;6029678;23;20054;-93
2023/04/25 09:29:01;;;;;;;21.27;2.90;;;;;;;;;;5999309;23;20071;-94
2023/04/25 09:35:16;;;;;;;6.20;1.40;;;;;;;;;;6029190;23;20034;-93
2023/04/25 09:44:38;;;;;;;7.68;1.77;;;;;;;;;;5946622;23;20025;-94
2023/04/25 09:47:04;;;;;;;9.38;1.85;;;;;;;;;;5861507;24;20110;-93
2023/04/25 09:49:47;;;;;;;;;;;;;;;;;;;;;
2023/04/25 09:52:16;;;;;;;4.47;1.55;;;;;;;;;;5864743;24;20022;-94
2023/04/25 09:57:49;;;;;;;3.38;1.33;;;;;;;;;;5901553;24;20024;-94
2023/04/25 10:03:36;;;;;;;11.45;1.88;;;;;;;;;;5887651;24;20040;-91
2023/04/25 10:06:42;;;;;;;;;;;;;;;;;;;;;
2023/04/25 10:13:01;;;;;;;5.13;1.50;;;;;;;;;;5954063;24;20017;-93
2023/04/25 10:15:28;;;;;;;3.38;1.30;;;;;;;;;;5960050;24;20016;-94
2023/04/25 10:18:00;;;;;;;6.47;1.13;;;;;;;;;;6095733;23;20171;-93
2023/04/25 10:20:27;;;;;;;8.57;1.35;;;;;;;;;;6169799;23;20469;-93
2023/04/25 10:23:28;;;;;;;8.20;1.83;;;;;;;;;;6145285;23;20013;-94
2023/04/25 10:25:55;;;;;;;5.53;1.77;;;;;;;;;;6106747;23;20006;-93
2023/04/25 10:28:28;;;;;;;7.43;1.52;;;;;;;;;;6156527;23;20009;-93
2023/04/25 10:31:17;;;;;;;13.27;2.38;;;;;;;;;;6176872;23;20033;-94
2023/04/25 10:34:19;;;;;;;;;;;;;;;;;;;;;
2023/04/25 10:37:06;;;;;;;6.45;1.70;;;;;;;;;;6201524;23;20000;-93
2023/04/25 10:40:01;;;;;;;7.22;1.38;;;;;;;;;;6143401;23;19998;-94
2023/04/25 10:42:31;;;;;;;7.50;2.35;;;;;;;;;;6086102;23;20006;-94
2023/04/25 10:45:07;;;;;;;8.85;1.55;;;;;;;;;;6146052;23;20009;-94
2023/04/25 10:47:45;;;;;;;4.60;1.35;;;;;;;;;;6134778;23;20270;-94
2023/04/25 10:50:42;;;;;;;10.80;1.50;;;;;;;;;;6138711;23;20003;-94
2023/04/25 10:53:18;;;;;;;;;;;;;;;;;;6142657;23;20504;-94
2023/04/25 10:55:51;;;;;;;4.57;1.42;;;;;;;;;;6139653;23;19901;-95
2023/04/25 10:58:26;;;;;;;3.22;1.15;;;;;;;;;;6133930;23;20037;-94
2023/04/25 11:00:55;;;;;;;29.48;4.57;;;;;;;;;;6131489;23;20006;-95
2023/04/25 11:03:30;;;;;;;11.80;1.52;;;;;;;;;;6137600;23;20008;-95
2023/04/25 11:09:04;;;;;;;12.07;2.55;;;;;;;;;;6033715;23;20016;-96
2023/04/25 11:11:30;;;;;;;5.05;1.20;;;;;;;;;;6079727;23;20017;-96
2023/04/25 11:14:31;;;;;;;6.22;1.52;;;;;;;;;;6113404;23;20016;-96
2023/04/25 11:17:16;;;;;;;5.68;2.00;;;;;;;;;;6108229;23;20036;-95
2023/04/25 11:20:21;;;;;;;9.23;2.50;;;;;;;;;;6168216;23;20431;-96
2023/04/25 11:23:00;;;;;;;5.18;1.08;;;;;;;;;;6231292;23;20008;-96
2023/04/25 11:25:28;;;;;;;2.85;1.23;;;;;;;;;;6207110;23;20016;-96
2023/04/25 11:28:01;;;;;;;7.55;1.60;;;;;;;;;;6204531;23;20008;-96
2023/04/25 11:30:53;;;;;;;7.53;1.95;;;;;;;;;;6256022;23;20008;-96
2023/04/25 11:33:24;;;;;;;11.05;1.80;;;;;;;;;;6205368;23;20016;-96
2023/04/25 11:35:59;;;;;;;13.48;2.40;;;;;;;;;;6229854;23;20008;-96
2023/04/25 11:38:29;;;;;;;9.73;1.65;;;;;;;;;;6229764;23;20015;-96
2023/04/25 11:41:04;;;;;;;11.55;1.70;;;;;;;;;;6206630;23;20059;-96
2023/04/25 11:43:31;;;;;;;7.53;1.60;;;;;;;;;;6208119;23;20039;-96
2023/04/25 11:45:58;;;;;;;10.00;1.50;;;;;;;;;;6233466;23;20008;-96
2023/04/25 11:48:44;;;;;;;9.93;2.45;;;;;;;;;;6236529;23;20087;-96
2023/04/25 11:51:22;;;;;;;3.83;1.42;;;;;;;;;;6211813;23;20310;-96
2023/04/25 11:53:50;;;;;;;4.07;1.33;;;;;;;;;;6212450;23;20040;-96
2023/04/25 11:56:20;;;;;;;9.38;1.42;;;;;;;;;;6212672;23;20068;-96
2023/04/25 11:59:00;;;;;;;9.82;2.00;;;;;;;;;;6237586;23;20016;-96
2023/04/25 12:01:34;;;;;;;13.90;2.75;;;;;;;;;;6212994;23;20015;-96
2023/04/25 12:04:20;;;;;;;23.52;2.83;;;;;;;;;;6215822;23;20039;-96
2023/04/25 12:06:48;;;;;;;9.05;2.72;;;;;;;;;;6266240;23;20082;-96
2023/04/25 12:09:17;;;;;;;7.35;1.98;;;;;;;;;;6216765;23;20019;-96
2023/04/25 12:11:45;;;;;;;6.25;1.63;;;;;;;;;;6234634;23;20015;-96
2023/04/25 12:14:19;;;;;;;7.70;1.70;;;;;;;;;;6234627;23;20023;-96
2023/04/25 12:16:46;;;;;;;12.35;1.88;;;;;;;;;;6234779;23;20031;-96
2023/04/25 12:19:17;;;;;;;10.80;1.98;;;;;;;;;;6210519;23;20012;-96
2023/04/25 12:21:43;;;;;;;3.67;0.90;;;;;;;;;;6254734;22;20016;-96
2023/04/25 12:24:17;;;;;;;16.02;2.00;;;;;;;;;;6265548;23;20057;-96
2023/04/25 12:26:54;;;;;;;15.00;1.80;;;;;;;;;;6266796;23;20001;-96
2023/04/25 12:29:28;;;;;;;9.35;1.77;;;;;;;;;;6265518;23;20004;-96
2023/04/25 12:31:55;;;;;;;25.05;1.83;;;;;;;;;;6267158;23;19999;-95
2023/04/25 12:34:21;;;;;;;7.55;1.52;;;;;;;;;;6242957;23;20004;-96
2023/04/25 12:36:49;;;;;;;8.32;1.88;;;;;;;;;;6237527;23;20004;-96
2023/04/25 12:39:21;;;;;;;8.50;1.63;;;;;;;;;;6262846;22;20008;-96
2023/04/25 12:41:48;;;;;;;11.30;1.70;;;;;;;;;;6264329;23;20004;-96
2023/04/25 12:44:15;;;;;;;5.57;1.52;;;;;;;;;;6264220;23;20000;-96
2023/04/25 12:46:47;;;;;;;7.75;1.60;;;;;;;;;;6261714;23;20070;-96
2023/04/25 12:49:16;;;;;;;7.15;1.80;;;;;;;;;;6263774;23;20005;-96
2023/04/25 12:51:43;;;;;;;7.60;1.27;;;;;;;;;;6265494;23;20011;-96
2023/04/25 12:54:09;;;;;;;8.95;1.17;;;;;;;;;;6265060;23;20081;-96
2023/04/25 12:56:36;;;;;;;10.82;1.55;;;;;;;;;;6236415;23;20035;-96
2023/04/25 12:59:03;;;;;;;11.70;2.33;;;;;;;;;;6231390;23;20011;-95
2023/04/25 13:01:29;;;;;;;5.60;1.30;;;;;;;;;;6255484;23;20012;-96
2023/04/25 13:03:56;;;;;;;7.28;1.83;;;;;;;;;;6257130;23;20056;-96
2023/04/25 13:06:22;;;;;;;5.82;1.50;;;;;;;;;;6258318;23;20004;-96
2023/04/25 13:08:48;;;;;;;9.15;1.75;;;;;;;;;;6231525;23;20023;-96
2023/04/25 13:11:14;;;;;;;6.65;1.55;;;;;;;;;;6232649;23;20477;-96
2023/04/25 13:13:41;;;;;;;6.00;1.70;;;;;;;;;;6262112;23;20012;-96
2023/04/25 13:16:10;;;;;;;2.72;1.10;;;;;;;;;;6238905;23;20013;-96
2023/04/25 13:18:36;;;;;;;5.90;1.48;;;;;;;;;;6236362;23;20018;-96
2023/04/25 13:21:03;;;;;;;6.75;1.90;;;;;;;;;;6257915;22;20043;-95
2023/04/25 13:23:30;;;;;;;4.82;1.17;;;;;;;;;;6234685;23;20004;-96
2023/04/25 13:25:57;;;;;;;7.55;1.15;;;;;;;;;;6260593;23;20012;-96
2023/04/25 13:28:24;;;;;;;12.93;2.13;;;;;;;;;;6256543;23;20004;-96
2023/04/25 13:30:51;;;;;;;8.98;2.03;;;;;;;;;;6252699;23;20355;-95
2023/04/25 13:33:17;;;;;;;13.57;2.95;;;;;;;;;;6252600;23;20054;-96
2023/04/25 13:35:46;;;;;;;11.70;2.15;;;;;;;;;;6225791;23;20012;-95
2023/04/25 13:38:13;;;;;;;8.68;1.48;;;;;;;;;;6228850;22;20012;-96
2023/04/25 13:40:39;;;;;;;4.88;1.50;;;;;;;;;;6226262;23;20012;-96
2023/04/25 13:43:06;;;;;;;7.57;1.60;;;;;;;;;;6225232;23;20008;-96
2023/04/25 13:45:34;;;;;;;6.40;1.67;;;;;;;;;;6225094;23;20012;-95
2023/04/25 13:48:00;;;;;;;6.15;1.63;;;;;;;;;;6249970;23;20012;-95
2023/04/25 13:50:26;;;;;;;4.10;1.50;;;;;;;;;;6225394;23;20018;-95
2023/04/25 13:52:52;;;;;;;3.60;1.27;;;;;;;;;;6225959;23;20021;-96
2023/04/25 13:55:19;;;;;;;5.22;1.10;;;;;;;;;;6226150;23;20346;-96
2023/04/25 13:57:45;;;;;;;6.00;1.15;;;;;;;;;;6225407;23;20426;-96
2023/04/25 14:00:12;;;;;;;8.07;1.10;;;;;;;;;;6224638;23;20018;-94
2023/04/25 14:02:38;;;;;;;10.63;1.63;;;;;;;;;;6223572;23;20012;-95
2023/04/25 14:05:06;;;;;;;6.05;1.42;;;;;;;;;;6249997;23;20004;-96
2023/04/25 14:07:33;;;;;;;10.88;1.70;;;;;;;;;;6250380;23;20004;-96
2023/04/25 14:10:07;;;;;;;4.93;1.73;;;;;;;;;;6251365;23;20035;-95
2023/04/25 14:12:36;;;;;;;7.32;2.38;;;;;;;;;;6250251;23;20094;-96
2023/04/25 14:15:02;;;;;;;12.10;1.80;;;;;;;;;;6226406;23;20062;-95
2023/04/25 14:17:28;;;;;;;9.27;1.90;;;;;;;;;;6250805;23;20010;-96
2023/04/25 14:19:54;;;;;;;9.20;1.20;;;;;;;;;;6226516;22;20018;-96
2023/04/25 14:22:24;;;;;;;3.75;1.50;;;;;;;;;;6249538;22;20020;-96
2023/04/25 14:24:50;;;;;;;7.45;1.30;;;;;;;;;;6226301;23;20398;-96
2023/04/25 14:27:17;;;;;;;5.40;1.63;;;;;;;;;;6224100;23;20034;-96
2023/04/25 14:29:46;;;;;;;5.80;2.17;;;;;;;;;;6250905;23;20015;-95
2023/04/25 14:32:12;;;;;;;6.43;1.63;;;;;;;;;;6249995;23;20473;-96
2023/04/25 14:34:38;;;;;;;9.18;1.83;;;;;;;;;;6225832;23;20458;-96
2023/04/25 14:37:05;;;;;;;5.90;1.30;;;;;;;;;;6225569;23;20012;-95
2023/04/25 14:39:33;;;;;;;8.23;1.50;;;;;;;;;;6225697;23;20019;-96
2023/04/25 14:41:59;;;;;;;5.03;1.60;;;;;;;;;;6224105;23;20008;-96
2023/04/25 14:44:25;;;;;;;8.40;1.33;;;;;;;;;;6224688;23;20001;-96
2023/04/25 14:47:02;;;;;;;9.07;1.45;;;;;;;;;;6250903;23;20008;-96
2023/04/25 14:49:28;;;;;;;3.10;1.20;;;;;;;;;;6223946;23;20008;-96
2023/04/25 14:51:54;;;;;;;11.13;1.33;;;;;;;;;;6224910;23;20004;-96
2023/04/25 14:54:20;;;;;;;11.75;1.52;;;;;;;;;;6223263;23;20087;-96
2023/04/25 14:56:49;;;;;;;9.45;2.03;;;;;;;;;;6225262;23;20008;-96
2023/04/25 14:59:15;;;;;;;8.77;1.73;;;;;;;;;;6224985;23;20004;-96
2023/04/25 15:01:43;;;;;;;3.38;1.30;;;;;;;;;;6223254;23;20008;-96
2023/04/25 15:04:10;;;;;;;4.88;1.00;;;;;;;;;;6224566;23;20008;-96
2023/04/25 15:06:39;;;;;;;3.92;1.27;;;;;;;;;;6224354;23;20004;-96
2023/04/25 15:09:06;;;;;;;10.65;1.63;;;;;;;;;;6225663;23;20010;-96
2023/04/25 15:11:35;;;;;;;7.13;1.63;;;;;;;;;;6231587;23;20021;-96
2023/04/25 15:14:01;;;;;;;8.02;2.17;;;;;;;;;;6267384;23;20023;-96
2023/04/25 15:16:31;;;;;;;8.65;1.58;;;;;;;;;;6266338;23;20027;-96
2023/04/25 15:19:03;;;;;;;5.28;1.48;;;;;;;;;;6266725;23;20004;-96
2023/04/25 15:21:38;;;;;;;6.43;1.70;;;;;;;;;;6265695;22;20016;-96
2023/04/25 15:24:07;;;;;;;10.18;1.50;;;;;;;;;;6267312;23;20004;-96
2023/04/25 15:26:33;;;;;;;8.57;1.55;;;;;;;;;;6266818;23;20001;-96
2023/04/25 15:29:07;;;;;;;8.07;2.05;;;;;;;;;;6242148;23;20024;-96
2023/04/25 15:31:42;;;;;;;8.30;1.60;;;;;;;;;;6267616;22;20035;-96
2023/04/25 15:34:08;;;;;;;4.55;1.35;;;;;;;;;;6266673;23;20028;-96
2023/04/25 15:36:58;;;;;;;3.47;1.42;;;;;;;;;;6266140;23;20024;-96
2023/04/25 15:42:16;;;;;;;7.32;1.17;;;;;;;;;;6267628;22;19996;-96
2023/04/25 15:45:04;;;;;;;8.77;1.50;;;;;;;;;;6266016;23;20052;-96
2023/04/25 15:47:43;;;;;;;6.78;1.15;;;;;;;;;;6268670;22;20012;-96
2023/04/25 15:50:18;;;;;;;4.57;1.10;;;;;;;;;;6266902;23;20011;-96
2023/04/25 15:52:50;;;;;;;4.97;1.25;;;;;;;;;;6267154;23;20012;-96
2023/04/25 15:55:17;;;;;;;8.15;2.40;;;;;;;;;;6266675;23;20004;-96
2023/04/25 15:57:43;;;;;;;6.47;1.08;;;;;;;;;;6266532;23;20008;-96
2023/04/25 16:00:19;;;;;;;6.47;1.38;;;;;;;;;;6243256;23;20011;-96
2023/04/25 16:02:49;;;;;;;11.13;1.42;;;;;;;;;;6267875;23;20385;-96
2023/04/25 16:05:33;;;;;;;7.55;1.35;;;;;;;;;;6266456;23;20028;-96
2023/04/25 16:08:08;;;;;;;5.28;1.25;;;;;;;;;;6294390;22;20059;-96
2023/04/25 16:10:41;;;;;;;4.70;1.30;;;;;;;;;;6246031;23;20019;-96
2023/04/25 16:13:13;;;;;;;7.47;1.33;;;;;;;;;;6244502;23;20012;-96
2023/04/25 16:15:45;;;;;;;4.40;1.35;;;;;;;;;;6246496;23;20008;-96
2023/04/25 16:18:12;;;;;;;4.88;1.20;;;;;;;;;;6269113;23;20012;-96
2023/04/25 16:20:52;;;;;;;6.35;1.42;;;;;;;;;;6272326;22;20454;-96
2023/04/25 16:23:35;;;;;;;7.50;1.40;;;;;;;;;;6269426;22;20007;-96